sensor_id;sensor_type;location;lat;lon;timestamp;pressure;altitude;pressure_sealevel;temperature;humidity
11621;BME280;5866;49.094;11.900;2023-02-19T00:01:36;96564.47;;;9.09;100.00
11621;BME280;5866;49.094;11.900;2023-02-19T00:04:10;96569.44;;;9.21;100.00
11621;BME280;5866;49.094;11.900;2023-02-19T00:06:38;96564.34;;;9.01;100.00
11621;BME280;5866;49.094;11.900;2023-02-19T00:09:07;96560.94;;;9.45;100.00
11621;BME280;5866;49.094;11.900;2023-02-19T00:11:36;96559.13;;;9.55;100.00
11621;BME280;5866;49.094;11.900;2023-02-19T00:14:05;96551.81;;;9.84;100.00
11621;BME280;5866;49.094;11.900;2023-02-19T00:16:35;96551.31;;;9.98;100.00
11621;BME280;5866;49.094;11.900;2023-02-19T00:19:06;96551.72;;;9.76;100.00
11621;BME280;5866;49.094;11.900;2023-02-19T00:21:33;96551.94;;;9.65;100.00
11621;BME280;5866;49.094;11.900;2023-02-19T00:24:03;96548.28;;;9.48;100.00
11621;BME280;5866;49.094;11.900;2023-02-19T00:26:33;96548.94;;;9.95;100.00
11621;BME280;5866;49.094;11.900;2023-02-19T00:29:01;96543.00;;;9.66;100.00
11621;BME280;5866;49.094;11.900;2023-02-19T00:31:31;96555.38;;;9.48;100.00
11621;BME280;5866;49.094;11.900;2023-02-19T00:34:01;96551.09;;;9.01;100.00
11621;BME280;5866;49.094;11.900;2023-02-19T00:36:31;96549.69;;;9.43;100.00
11621;BME280;5866;49.094;11.900;2023-02-19T00:39:00;96554.56;;;9.11;100.00
11621;BME280;5866;49.094;11.900;2023-02-19T00:41:27;96559.44;;;9.15;100.00
11621;BME280;5866;49.094;11.900;2023-02-19T00:43:57;96554.28;;;9.41;100.00
11621;BME280;5866;49.094;11.900;2023-02-19T00:46:26;96551.00;;;9.29;100.00
11621;BME280;5866;49.094;11.900;2023-02-19T00:48:56;96549.44;;;9.36;100.00
11621;BME280;5866;49.094;11.900;2023-02-19T00:51:26;96555.56;;;9.64;100.00
11621;BME280;5866;49.094;11.900;2023-02-19T00:53:54;96546.22;;;9.87;100.00
11621;BME280;5866;49.094;11.900;2023-02-19T00:56:21;96543.00;;;10.11;100.00
11621;BME280;5866;49.094;11.900;2023-02-19T00:58:49;96553.50;;;9.58;100.00
11621;BME280;5866;49.094;11.900;2023-02-19T01:01:18;96543.91;;;9.30;100.00
11621;BME280;5866;49.094;11.900;2023-02-19T01:03:45;96556.47;;;9.18;100.00
11621;BME280;5866;49.094;11.900;2023-02-19T01:06:17;96557.16;;;9.30;100.00
11621;BME280;5866;49.094;11.900;2023-02-19T01:08:45;96555.69;;;9.08;100.00
11621;BME280;5866;49.094;11.900;2023-02-19T01:11:13;96550.50;;;8.79;100.00
11621;BME280;5866;49.094;11.900;2023-02-19T01:13:42;96542.78;;;8.86;100.00
11621;BME280;5866;49.094;11.900;2023-02-19T01:16:11;96543.00;;;8.65;100.00
11621;BME280;5866;49.094;11.900;2023-02-19T01:18:39;96542.19;;;8.55;100.00
11621;BME280;5866;49.094;11.900;2023-02-19T01:21:09;96543.28;;;8.62;100.00
11621;BME280;5866;49.094;11.900;2023-02-19T01:23:39;96548.69;;;8.70;100.00
11621;BME280;5866;49.094;11.900;2023-02-19T01:26:10;96533.34;;;9.20;100.00
11621;BME280;5866;49.094;11.900;2023-02-19T01:28:39;96522.72;;;9.30;100.00
11621;BME280;5866;49.094;11.900;2023-02-19T01:31:08;96517.63;;;9.19;100.00
11621;BME280;5866;49.094;11.900;2023-02-19T01:33:37;96520.25;;;8.92;100.00
11621;BME280;5866;49.094;11.900;2023-02-19T01:36:06;96504.59;;;8.61;100.00
11621;BME280;5866;49.094;11.900;2023-02-19T01:38:33;96517.66;;;8.72;100.00
11621;BME280;5866;49.094;11.900;2023-02-19T01:41:04;96518.91;;;8.68;100.00
11621;BME280;5866;49.094;11.900;2023-02-19T01:43:33;96520.38;;;8.44;100.00
11621;BME280;5866;49.094;11.900;2023-02-19T01:46:01;96515.94;;;8.35;100.00
11621;BME280;5866;49.094;11.900;2023-02-19T01:48:31;96516.75;;;8.16;100.00
11621;BME280;5866;49.094;11.900;2023-02-19T01:51:04;96505.06;;;8.28;100.00
11621;BME280;5866;49.094;11.900;2023-02-19T01:53:37;96512.53;;;8.61;100.00
11621;BME280;5866;49.094;11.900;2023-02-19T01:56:07;96489.72;;;8.60;100.00
11621;BME280;5866;49.094;11.900;2023-02-19T01:58:36;96492.91;;;9.01;100.00
11621;BME280;5866;49.094;11.900;2023-02-19T02:01:06;96484.94;;;9.37;100.00
11621;BME280;5866;49.094;11.900;2023-02-19T02:03:36;96475.88;;;9.13;100.00
11621;BME280;5866;49.094;11.900;2023-02-19T02:06:08;96473.91;;;8.78;100.00
11621;BME280;5866;49.094;11.900;2023-02-19T02:08:39;96471.00;;;8.81;100.00
11621;BME280;5866;49.094;11.900;2023-02-19T02:11:25;96469.28;;;8.90;100.00
11621;BME280;5866;49.094;11.900;2023-02-19T02:13:54;96456.16;;;8.98;100.00
11621;BME280;5866;49.094;11.900;2023-02-19T02:16:23;96471.75;;;8.64;100.00
11621;BME280;5866;49.094;11.900;2023-02-19T02:19:00;96453.69;;;8.87;100.00
11621;BME280;5866;49.094;11.900;2023-02-19T02:21:41;96440.03;;;8.91;100.00
11621;BME280;5866;49.094;11.900;2023-02-19T02:27:29;96436.53;;;8.63;100.00
11621;BME280;5866;49.094;11.900;2023-02-19T02:30:37;96444.00;;;8.77;100.00
11621;BME280;5866;49.094;11.900;2023-02-19T02:33:13;96422.84;;;8.77;100.00
11621;BME280;5866;49.094;11.900;2023-02-19T02:35:46;96429.22;;;8.85;100.00
11621;BME280;5866;49.094;11.900;2023-02-19T02:38:17;96429.88;;;8.59;100.00
11621;BME280;5866;49.094;11.900;2023-02-19T02:40:47;96434.38;;;8.49;100.00
11621;BME280;5866;49.094;11.900;2023-02-19T02:43:14;96438.91;;;8.66;100.00
11621;BME280;5866;49.094;11.900;2023-02-19T02:45:43;96430.56;;;8.61;100.00
11621;BME280;5866;49.094;11.900;2023-02-19T02:48:20;96434.88;;;8.62;100.00
11621;BME280;5866;49.094;11.900;2023-02-19T02:50:52;96426.63;;;8.75;100.00
11621;BME280;5866;49.094;11.900;2023-02-19T02:53:25;96419.88;;;8.90;100.00
11621;BME280;5866;49.094;11.900;2023-02-19T02:56:13;96403.19;;;8.80;100.00
11621;BME280;5866;49.094;11.900;2023-02-19T02:58:42;96411.47;;;8.67;100.00
11621;BME280;5866;49.094;11.900;2023-02-19T03:01:18;96414.69;;;8.61;100.00
11621;BME280;5866;49.094;11.900;2023-02-19T03:04:08;96413.44;;;8.65;100.00
11621;BME280;5866;49.094;11.900;2023-02-19T03:06:39;96413.34;;;8.85;100.00
11621;BME280;5866;49.094;11.900;2023-02-19T03:09:11;96407.59;;;8.62;100.00
11621;BME280;5866;49.094;11.900;2023-02-19T03:11:42;96409.50;;;8.69;100.00
11621;BME280;5866;49.094;11.900;2023-02-19T03:14:32;96401.22;;;8.92;100.00
11621;BME280;5866;49.094;11.900;2023-02-19T03:17:32;96395.16;;;8.99;100.00
11621;BME280;5866;49.094;11.900;2023-02-19T03:20:20;96382.09;;;8.98;100.00
11621;BME280;5866;49.094;11.900;2023-02-19T03:22:51;96384.25;;;8.57;100.00
11621;BME280;5866;49.094;11.900;2023-02-19T03:25:21;96379.28;;;8.82;100.00
11621;BME280;5866;49.094;11.900;2023-02-19T03:28:10;96394.28;;;8.54;100.00
11621;BME280;5866;49.094;11.900;2023-02-19T03:30:41;96397.56;;;8.65;100.00
11621;BME280;5866;49.094;11.900;2023-02-19T03:33:14;96408.72;;;8.59;100.00
11621;BME280;5866;49.094;11.900;2023-02-19T03:35:45;96399.38;;;8.38;100.00
11621;BME280;5866;49.094;11.900;2023-02-19T03:38:16;96393.09;;;8.39;100.00
11621;BME280;5866;49.094;11.900;2023-02-19T03:40:52;96405.19;;;8.41;100.00
11621;BME280;5866;49.094;11.900;2023-02-19T03:43:26;96403.50;;;8.50;100.00
11621;BME280;5866;49.094;11.900;2023-02-19T03:46:07;96396.75;;;8.65;100.00
11621;BME280;5866;49.094;11.900;2023-02-19T03:48:40;96400.69;;;8.51;100.00
11621;BME280;5866;49.094;11.900;2023-02-19T03:51:19;96415.38;;;8.63;100.00
11621;BME280;5866;49.094;11.900;2023-02-19T03:53:56;96400.75;;;8.42;100.00
11621;BME280;5866;49.094;11.900;2023-02-19T03:56:31;96390.63;;;8.64;100.00
11621;BME280;5866;49.094;11.900;2023-02-19T03:59:04;96394.47;;;8.70;100.00
11621;BME280;5866;49.094;11.900;2023-02-19T04:01:38;96383.91;;;8.70;100.00
11621;BME280;5866;49.094;11.900;2023-02-19T04:04:15;96371.38;;;8.72;100.00
11621;BME280;5866;49.094;11.900;2023-02-19T04:06:49;96362.91;;;8.68;100.00
11621;BME280;5866;49.094;11.900;2023-02-19T04:09:19;96362.41;;;8.55;100.00
11621;BME280;5866;49.094;11.900;2023-02-19T04:11:49;96374.94;;;8.53;100.00
11621;BME280;5866;49.094;11.900;2023-02-19T04:14:21;96367.31;;;8.50;100.00
11621;BME280;5866;49.094;11.900;2023-02-19T04:16:54;96355.41;;;8.37;100.00
11621;BME280;5866;49.094;11.900;2023-02-19T04:19:27;96371.59;;;8.51;100.00
11621;BME280;5866;49.094;11.900;2023-02-19T04:21:56;96350.69;;;8.21;100.00
11621;BME280;5866;49.094;11.900;2023-02-19T04:24:28;96373.22;;;8.35;100.00
11621;BME280;5866;49.094;11.900;2023-02-19T04:26:58;96373.94;;;8.27;100.00
11621;BME280;5866;49.094;11.900;2023-02-19T04:29:26;96372.50;;;8.23;100.00
11621;BME280;5866;49.094;11.900;2023-02-19T04:31:53;96379.38;;;8.16;100.00
11621;BME280;5866;49.094;11.900;2023-02-19T04:34:21;96371.53;;;8.24;100.00
11621;BME280;5866;49.094;11.900;2023-02-19T04:36:50;96386.47;;;8.25;100.00
11621;BME280;5866;49.094;11.900;2023-02-19T04:39:17;96383.25;;;8.31;100.00
11621;BME280;5866;49.094;11.900;2023-02-19T04:41:45;96392.44;;;8.27;100.00
11621;BME280;5866;49.094;11.900;2023-02-19T04:44:12;96392.97;;;8.21;100.00
11621;BME280;5866;49.094;11.900;2023-02-19T04:46:40;96395.75;;;8.20;100.00
11621;BME280;5866;49.094;11.900;2023-02-19T04:49:08;96396.31;;;8.14;100.00
11621;BME280;5866;49.094;11.900;2023-02-19T04:51:36;96398.25;;;8.21;100.00
11621;BME280;5866;49.094;11.900;2023-02-19T04:54:05;96390.25;;;8.03;100.00
11621;BME280;5866;49.094;11.900;2023-02-19T04:56:33;96407.19;;;8.01;100.00
11621;BME280;5866;49.094;11.900;2023-02-19T04:59:01;96398.84;;;8.06;100.00
11621;BME280;5866;49.094;11.900;2023-02-19T05:01:28;96411.53;;;8.02;100.00
11621;BME280;5866;49.094;11.900;2023-02-19T05:03:56;96414.69;;;7.96;100.00
11621;BME280;5866;49.094;11.900;2023-02-19T05:06:23;96420.97;;;7.95;100.00
11621;BME280;5866;49.094;11.900;2023-02-19T05:08:51;96423.88;;;7.92;100.00
11621;BME280;5866;49.094;11.900;2023-02-19T05:11:20;96409.41;;;7.96;100.00
11621;BME280;5866;49.094;11.900;2023-02-19T05:13:49;96407.50;;;7.88;100.00
11621;BME280;5866;49.094;11.900;2023-02-19T05:16:16;96404.69;;;7.90;100.00
11621;BME280;5866;49.094;11.900;2023-02-19T05:18:45;96414.88;;;7.85;100.00
11621;BME280;5866;49.094;11.900;2023-02-19T05:21:13;96410.16;;;7.79;100.00
11621;BME280;5866;49.094;11.900;2023-02-19T05:23:41;96419.19;;;7.76;100.00
11621;BME280;5866;49.094;11.900;2023-02-19T05:26:12;96412.91;;;7.77;100.00
11621;BME280;5866;49.094;11.900;2023-02-19T05:28:42;96433.09;;;7.78;100.00
11621;BME280;5866;49.094;11.900;2023-02-19T05:31:10;96415.28;;;7.80;100.00
11621;BME280;5866;49.094;11.900;2023-02-19T05:33:38;96417.09;;;7.80;100.00
11621;BME280;5866;49.094;11.900;2023-02-19T05:36:10;96425.00;;;7.80;100.00
11621;BME280;5866;49.094;11.900;2023-02-19T05:38:39;96423.22;;;7.80;100.00
11621;BME280;5866;49.094;11.900;2023-02-19T05:41:11;96420.16;;;7.75;100.00
11621;BME280;5866;49.094;11.900;2023-02-19T05:43:39;96417.78;;;7.82;100.00
11621;BME280;5866;49.094;11.900;2023-02-19T05:46:09;96423.63;;;7.76;100.00
11621;BME280;5866;49.094;11.900;2023-02-19T05:48:37;96414.72;;;7.86;100.00
11621;BME280;5866;49.094;11.900;2023-02-19T05:51:05;96418.34;;;7.76;100.00
11621;BME280;5866;49.094;11.900;2023-02-19T05:53:34;96416.81;;;7.73;100.00
11621;BME280;5866;49.094;11.900;2023-02-19T05:56:02;96415.00;;;7.74;100.00
11621;BME280;5866;49.094;11.900;2023-02-19T05:58:30;96398.91;;;7.67;100.00
11621;BME280;5866;49.094;11.900;2023-02-19T06:00:57;96419.47;;;7.64;100.00
11621;BME280;5866;49.094;11.900;2023-02-19T06:03:26;96411.81;;;7.61;100.00
11621;BME280;5866;49.094;11.900;2023-02-19T06:05:54;96420.28;;;7.74;100.00
11621;BME280;5866;49.094;11.900;2023-02-19T06:08:21;96421.28;;;7.73;100.00
11621;BME280;5866;49.094;11.900;2023-02-19T06:10:49;96428.47;;;7.71;100.00
11621;BME280;5866;49.094;11.900;2023-02-19T06:13:16;96425.03;;;7.70;100.00
11621;BME280;5866;49.094;11.900;2023-02-19T06:15:44;96433.75;;;7.71;100.00
11621;BME280;5866;49.094;11.900;2023-02-19T06:18:11;96433.06;;;7.69;100.00
11621;BME280;5866;49.094;11.900;2023-02-19T06:20:40;96418.22;;;7.68;100.00
11621;BME280;5866;49.094;11.900;2023-02-19T06:23:07;96417.50;;;7.75;100.00
11621;BME280;5866;49.094;11.900;2023-02-19T06:25:35;96421.97;;;7.65;100.00
11621;BME280;5866;49.094;11.900;2023-02-19T06:28:03;96426.97;;;7.68;100.00
11621;BME280;5866;49.094;11.900;2023-02-19T06:30:31;96411.41;;;7.75;100.00
11621;BME280;5866;49.094;11.900;2023-02-19T06:32:58;96419.88;;;7.69;100.00
11621;BME280;5866;49.094;11.900;2023-02-19T06:35:26;96411.69;;;7.72;100.00
11621;BME280;5866;49.094;11.900;2023-02-19T06:37:55;96410.00;;;7.71;100.00
11621;BME280;5866;49.094;11.900;2023-02-19T06:40:22;96404.44;;;7.74;100.00
11621;BME280;5866;49.094;11.900;2023-02-19T06:42:50;96408.91;;;7.83;100.00
11621;BME280;5866;49.094;11.900;2023-02-19T06:45:17;96420.84;;;7.77;100.00
11621;BME280;5866;49.094;11.900;2023-02-19T06:47:45;96428.34;;;7.82;100.00
11621;BME280;5866;49.094;11.900;2023-02-19T06:50:12;96431.00;;;7.82;100.00
11621;BME280;5866;49.094;11.900;2023-02-19T06:52:40;96434.44;;;7.92;100.00
11621;BME280;5866;49.094;11.900;2023-02-19T06:55:09;96448.19;;;8.05;100.00
11621;BME280;5866;49.094;11.900;2023-02-19T06:57:37;96446.41;;;7.96;100.00
11621;BME280;5866;49.094;11.900;2023-02-19T07:00:05;96451.69;;;7.96;100.00
11621;BME280;5866;49.094;11.900;2023-02-19T07:02:33;96439.06;;;7.80;100.00
11621;BME280;5866;49.094;11.900;2023-02-19T07:05:00;96457.13;;;7.85;100.00
11621;BME280;5866;49.094;11.900;2023-02-19T07:07:28;96474.50;;;7.87;100.00
11621;BME280;5866;49.094;11.900;2023-02-19T07:09:55;96473.09;;;8.02;100.00
11621;BME280;5866;49.094;11.900;2023-02-19T07:12:24;96476.28;;;7.96;100.00
11621;BME280;5866;49.094;11.900;2023-02-19T07:14:51;96458.78;;;7.95;100.00
11621;BME280;5866;49.094;11.900;2023-02-19T07:17:19;96486.19;;;7.85;100.00
11621;BME280;5866;49.094;11.900;2023-02-19T07:19:46;96484.50;;;7.93;100.00
11621;BME280;5866;49.094;11.900;2023-02-19T07:22:14;96486.44;;;8.20;100.00
11621;BME280;5866;49.094;11.900;2023-02-19T07:24:41;96487.56;;;8.08;100.00
11621;BME280;5866;49.094;11.900;2023-02-19T07:27:12;96489.75;;;8.22;100.00
11621;BME280;5866;49.094;11.900;2023-02-19T07:29:40;96486.59;;;8.28;100.00
11621;BME280;5866;49.094;11.900;2023-02-19T07:32:08;96491.44;;;8.14;100.00
11621;BME280;5866;49.094;11.900;2023-02-19T07:34:36;96488.09;;;8.12;100.00
11621;BME280;5866;49.094;11.900;2023-02-19T07:37:03;96491.28;;;8.15;100.00
11621;BME280;5866;49.094;11.900;2023-02-19T07:39:31;96486.69;;;8.17;100.00
11621;BME280;5866;49.094;11.900;2023-02-19T07:41:58;96500.22;;;8.33;100.00
11621;BME280;5866;49.094;11.900;2023-02-19T07:44:25;96497.84;;;8.40;100.00
11621;BME280;5866;49.094;11.900;2023-02-19T07:46:54;96500.59;;;8.19;100.00
11621;BME280;5866;49.094;11.900;2023-02-19T07:49:22;96515.91;;;8.16;100.00
11621;BME280;5866;49.094;11.900;2023-02-19T07:51:49;96500.91;;;8.26;100.00
11621;BME280;5866;49.094;11.900;2023-02-19T07:54:17;96515.47;;;8.49;100.00
11621;BME280;5866;49.094;11.900;2023-02-19T07:56:44;96502.56;;;8.36;100.00
11621;BME280;5866;49.094;11.900;2023-02-19T07:59:12;96505.06;;;8.28;100.00
11621;BME280;5866;49.094;11.900;2023-02-19T08:01:41;96509.34;;;8.58;100.00
11621;BME280;5866;49.094;11.900;2023-02-19T08:04:27;96501.91;;;8.80;100.00
11621;BME280;5866;49.094;11.900;2023-02-19T08:06:54;96504.94;;;8.86;100.00
11621;BME280;5866;49.094;11.900;2023-02-19T08:09:22;96514.53;;;8.87;100.00
11621;BME280;5866;49.094;11.900;2023-02-19T08:11:49;96501.03;;;8.90;100.00
11621;BME280;5866;49.094;11.900;2023-02-19T08:14:34;96488.25;;;8.75;100.00
11621;BME280;5866;49.094;11.900;2023-02-19T08:17:02;96509.72;;;8.72;100.00
11621;BME280;5866;49.094;11.900;2023-02-19T08:19:31;96519.00;;;8.86;100.00
11621;BME280;5866;49.094;11.900;2023-02-19T08:21:58;96535.69;;;8.87;100.00
11621;BME280;5866;49.094;11.900;2023-02-19T08:24:26;96525.44;;;8.84;100.00
11621;BME280;5866;49.094;11.900;2023-02-19T08:26:53;96540.84;;;8.88;100.00
11621;BME280;5866;49.094;11.900;2023-02-19T08:29:21;96524.94;;;8.98;100.00
11621;BME280;5866;49.094;11.900;2023-02-19T08:31:48;96539.19;;;8.87;100.00
11621;BME280;5866;49.094;11.900;2023-02-19T08:34:16;96552.41;;;8.87;100.00
11621;BME280;5866;49.094;11.900;2023-02-19T08:36:44;96550.25;;;9.10;100.00
11621;BME280;5866;49.094;11.900;2023-02-19T08:39:12;96536.97;;;8.92;100.00
11621;BME280;5866;49.094;11.900;2023-02-19T08:41:39;96555.00;;;8.97;100.00
11621;BME280;5866;49.094;11.900;2023-02-19T08:44:07;96544.63;;;8.86;100.00
11621;BME280;5866;49.094;11.900;2023-02-19T08:46:34;96559.78;;;8.93;100.00
11621;BME280;5866;49.094;11.900;2023-02-19T08:49:02;96548.41;;;8.73;100.00
11621;BME280;5866;49.094;11.900;2023-02-19T08:51:29;96551.09;;;9.01;100.00
11621;BME280;5866;49.094;11.900;2023-02-19T08:54:01;96551.69;;;8.95;100.00
11621;BME280;5866;49.094;11.900;2023-02-19T08:56:28;96552.88;;;9.10;100.00
11621;BME280;5866;49.094;11.900;2023-02-19T08:58:56;96527.44;;;8.99;100.00
11621;BME280;5866;49.094;11.900;2023-02-19T09:01:23;96557.75;;;8.68;100.00
11621;BME280;5866;49.094;11.900;2023-02-19T09:03:51;96560.97;;;8.62;100.00
11621;BME280;5866;49.094;11.900;2023-02-19T09:06:19;96569.00;;;8.79;100.00
11621;BME280;5866;49.094;11.900;2023-02-19T09:08:47;96575.94;;;8.80;100.00
11621;BME280;5866;49.094;11.900;2023-02-19T09:11:16;96567.56;;;8.95;100.00
11621;BME280;5866;49.094;11.900;2023-02-19T09:13:43;96581.16;;;9.09;100.00
11621;BME280;5866;49.094;11.900;2023-02-19T09:16:11;96563.38;;;9.02;100.00
11621;BME280;5866;49.094;11.900;2023-02-19T09:18:39;96560.50;;;8.76;100.00
11621;BME280;5866;49.094;11.900;2023-02-19T09:21:06;96580.16;;;9.20;100.00
11621;BME280;5866;49.094;11.900;2023-02-19T09:23:35;96565.78;;;9.22;100.00
11621;BME280;5866;49.094;11.900;2023-02-19T09:26:05;96577.13;;;9.15;100.00
11621;BME280;5866;49.094;11.900;2023-02-19T09:28:36;96583.31;;;9.33;100.00
11621;BME280;5866;49.094;11.900;2023-02-19T09:31:08;96587.13;;;9.11;100.00
11621;BME280;5866;49.094;11.900;2023-02-19T09:33:36;96585.91;;;9.06;100.00
11621;BME280;5866;49.094;11.900;2023-02-19T09:36:04;96584.88;;;8.79;100.00
11621;BME280;5866;49.094;11.900;2023-02-19T09:38:32;96598.75;;;8.91;100.00
11621;BME280;5866;49.094;11.900;2023-02-19T09:41:05;96604.91;;;8.82;100.00
11621;BME280;5866;49.094;11.900;2023-02-19T09:43:36;96601.00;;;8.86;100.00
11621;BME280;5866;49.094;11.900;2023-02-19T09:46:08;96597.25;;;8.69;100.00
11621;BME280;5866;49.094;11.900;2023-02-19T09:48:41;96609.09;;;8.75;100.00
11621;BME280;5866;49.094;11.900;2023-02-19T09:51:09;96598.53;;;8.65;100.00
11621;BME280;5866;49.094;11.900;2023-02-19T09:53:41;96600.19;;;8.76;100.00
11621;BME280;5866;49.094;11.900;2023-02-19T09:56:10;96618.94;;;9.02;100.00
11621;BME280;5866;49.094;11.900;2023-02-19T09:58:45;96623.88;;;9.24;100.00
11621;BME280;5866;49.094;11.900;2023-02-19T10:01:13;96613.91;;;9.45;100.00
11621;BME280;5866;49.094;11.900;2023-02-19T10:03:43;96628.47;;;9.22;100.00
11621;BME280;5866;49.094;11.900;2023-02-19T10:06:15;96631.56;;;9.17;100.00
11621;BME280;5866;49.094;11.900;2023-02-19T10:08:46;96627.03;;;9.00;100.00
11621;BME280;5866;49.094;11.900;2023-02-19T10:11:14;96627.09;;;9.18;100.00
11621;BME280;5866;49.094;11.900;2023-02-19T10:13:46;96618.94;;;9.02;100.00
11621;BME280;5866;49.094;11.900;2023-02-19T10:16:18;96618.81;;;8.94;100.00
11621;BME280;5866;49.094;11.900;2023-02-19T10:18:46;96627.97;;;9.09;100.00
11621;BME280;5866;49.094;11.900;2023-02-19T10:21:16;96627.47;;;9.32;100.00
11621;BME280;5866;49.094;11.900;2023-02-19T10:23:47;96624.81;;;9.42;100.00
11621;BME280;5866;49.094;11.900;2023-02-19T10:26:16;96615.06;;;9.33;100.00
11621;BME280;5866;49.094;11.900;2023-02-19T10:28:45;96621.22;;;9.33;100.00
11621;BME280;5866;49.094;11.900;2023-02-19T10:31:15;96629.34;;;9.13;100.00
11621;BME280;5866;49.094;11.900;2023-02-19T10:33:50;96616.84;;;8.96;100.00
11621;BME280;5866;49.094;11.900;2023-02-19T10:36:26;96619.56;;;9.23;100.00
11621;BME280;5866;49.094;11.900;2023-02-19T10:38:58;96632.44;;;9.08;100.00
11621;BME280;5866;49.094;11.900;2023-02-19T10:41:27;96651.97;;;8.78;100.00
11621;BME280;5866;49.094;11.900;2023-02-19T10:44:03;96645.84;;;8.88;100.00
11621;BME280;5866;49.094;11.900;2023-02-19T10:46:34;96659.47;;;8.93;100.00
11621;BME280;5866;49.094;11.900;2023-02-19T10:49:05;96661.41;;;8.91;100.00
11621;BME280;5866;49.094;11.900;2023-02-19T10:51:40;96660.88;;;8.77;100.00
11621;BME280;5866;49.094;11.900;2023-02-19T10:54:15;96651.66;;;8.91;100.00
11621;BME280;5866;49.094;11.900;2023-02-19T10:56:43;96644.53;;;9.11;100.00
11621;BME280;5866;49.094;11.900;2023-02-19T10:59:24;96651.59;;;9.29;100.00
11621;BME280;5866;49.094;11.900;2023-02-19T11:01:54;96655.13;;;9.57;100.00
11621;BME280;5866;49.094;11.900;2023-02-19T11:04:23;96645.09;;;9.51;100.00
11621;BME280;5866;49.094;11.900;2023-02-19T11:06:51;96661.66;;;9.53;100.00
11621;BME280;5866;49.094;11.900;2023-02-19T11:09:24;96654.81;;;9.23;100.00
11621;BME280;5866;49.094;11.900;2023-02-19T11:11:54;96654.94;;;9.31;100.00
11621;BME280;5866;49.094;11.900;2023-02-19T11:14:24;96643.09;;;9.26;100.00
11621;BME280;5866;49.094;11.900;2023-02-19T11:16:54;96654.34;;;9.37;100.00
11621;BME280;5866;49.094;11.900;2023-02-19T11:19:29;96645.88;;;9.24;100.00
11621;BME280;5866;49.094;11.900;2023-02-19T11:21:58;96656.41;;;9.07;100.00
11621;BME280;5866;49.094;11.900;2023-02-19T11:24:32;96649.13;;;9.18;100.00
11621;BME280;5866;49.094;11.900;2023-02-19T11:27:03;96642.31;;;9.06;100.00
11621;BME280;5866;49.094;11.900;2023-02-19T11:29:33;96661.47;;;9.37;100.00
11621;BME280;5866;49.094;11.900;2023-02-19T11:32:21;96651.91;;;9.53;100.00
11621;BME280;5866;49.094;11.900;2023-02-19T11:34:51;96639.22;;;9.30;100.00
11621;BME280;5866;49.094;11.900;2023-02-19T11:37:19;96651.84;;;9.36;100.00
11621;BME280;5866;49.094;11.900;2023-02-19T11:39:49;96657.75;;;9.20;100.00
11621;BME280;5866;49.094;11.900;2023-02-19T11:42:25;96649.94;;;9.19;100.00
11621;BME280;5866;49.094;11.900;2023-02-19T11:45:08;96658.63;;;9.02;100.00
11621;BME280;5866;49.094;11.900;2023-02-19T11:47:56;96662.75;;;9.14;100.00
11621;BME280;5866;49.094;11.900;2023-02-19T11:50:34;96667.97;;;8.87;100.00
11621;BME280;5866;49.094;11.900;2023-02-19T11:53:15;96666.00;;;8.69;100.00
11621;BME280;5866;49.094;11.900;2023-02-19T11:55:56;96671.75;;;8.74;100.00
11621;BME280;5866;49.094;11.900;2023-02-19T12:01:42;96673.09;;;8.88;100.00
11621;BME280;5866;49.094;11.900;2023-02-19T12:07:20;96663.03;;;9.20;100.00
11621;BME280;5866;49.094;11.900;2023-02-19T12:09:59;96667.22;;;9.23;100.00
11621;BME280;5866;49.094;11.900;2023-02-19T12:12:40;96668.16;;;9.78;100.00
11621;BME280;5866;49.094;11.900;2023-02-19T12:15:30;96650.88;;;9.74;100.00
11621;BME280;5866;49.094;11.900;2023-02-19T12:18:19;96666.91;;;9.72;100.00
11621;BME280;5866;49.094;11.900;2023-02-19T12:20:56;96673.03;;;10.00;100.00
11621;BME280;5866;49.094;11.900;2023-02-19T12:23:53;96677.41;;;9.91;100.00
11621;BME280;5866;49.094;11.900;2023-02-19T12:26:26;96656.50;;;9.61;100.00
11621;BME280;5866;49.094;11.900;2023-02-19T12:29:17;96675.31;;;9.58;100.00
11621;BME280;5866;49.094;11.900;2023-02-19T12:31:56;96678.44;;;9.44;100.00
11621;BME280;5866;49.094;11.900;2023-02-19T12:37:38;96697.59;;;9.09;100.00
11621;BME280;5866;49.094;11.900;2023-02-19T12:40:19;96710.84;;;9.00;100.00
11621;BME280;5866;49.094;11.900;2023-02-19T12:42:59;96718.06;;;8.88;100.00
11621;BME280;5866;49.094;11.900;2023-02-19T12:45:31;96715.97;;;8.63;100.00
11621;BME280;5866;49.094;11.900;2023-02-19T12:48:03;96731.56;;;8.47;100.00
11621;BME280;5866;49.094;11.900;2023-02-19T12:50:34;96726.66;;;8.33;100.00
11621;BME280;5866;49.094;11.900;2023-02-19T12:53:06;96735.69;;;8.30;100.00
11621;BME280;5866;49.094;11.900;2023-02-19T12:55:40;96730.00;;;8.44;100.00
11621;BME280;5866;49.094;11.900;2023-02-19T12:58:12;96727.09;;;8.47;100.00
11621;BME280;5866;49.094;11.900;2023-02-19T13:00:47;96719.31;;;8.55;100.00
11621;BME280;5866;49.094;11.900;2023-02-19T13:03:21;96724.03;;;8.42;100.00
11621;BME280;5866;49.094;11.900;2023-02-19T13:05:51;96715.97;;;8.53;100.00
11621;BME280;5866;49.094;11.900;2023-02-19T13:08:25;96707.06;;;8.93;100.00
11621;BME280;5866;49.094;11.900;2023-02-19T13:10:56;96717.75;;;9.39;100.00
11621;BME280;5866;49.094;11.900;2023-02-19T13:13:29;96711.81;;;9.08;100.00
11621;BME280;5866;49.094;11.900;2023-02-19T13:16:01;96711.13;;;9.06;100.00
11621;BME280;5866;49.094;11.900;2023-02-19T13:18:38;96708.44;;;9.16;100.00
11621;BME280;5866;49.094;11.900;2023-02-19T13:21:07;96713.22;;;9.03;100.00
11621;BME280;5866;49.094;11.900;2023-02-19T13:23:40;96716.00;;;9.11;100.00
11621;BME280;5866;49.094;11.900;2023-02-19T13:26:37;96701.06;;;9.10;100.00
11621;BME280;5866;49.094;11.900;2023-02-19T13:29:17;96691.97;;;9.41;100.00
11621;BME280;5866;49.094;11.900;2023-02-19T13:31:58;96690.19;;;9.32;100.00
11621;BME280;5866;49.094;11.900;2023-02-19T13:34:46;96677.91;;;9.31;100.00